Time;durP1;ratioP1;P1;durP2;ratioP2;P2;SDS_P1;SDS_P2;PMS_P1;PMS_P2;Temp;Humidity;BMP_temperature;BMP_pressure;BME280_temperature;BME280_humidity;BME280_pressure;Samples;Min_cycle;Max_cycle;Signal;HPM_P1;HPM_P2
2023/03/15 00:00:01;;;;;;;3.40;0.80;;;;;;;5.13;100.00;95782.22;5075386;28;20286;-84
2023/03/15 00:02:31;;;;;;;1.00;0.80;;;;;;;5.09;100.00;95789.84;5087099;28;20288;-84
2023/03/15 00:04:58;;;;;;;2.40;1.00;;;;;;;5.12;100.00;95783.22;5078932;28;20232;-84
2023/03/15 00:07:25;;;;;;;1.03;0.93;;;;;;;5.26;100.00;95793.72;5088061;28;20187;-84
2023/03/15 00:09:53;;;;;;;503.80;435.47;;;;;;;5.33;100.00;95785.66;5086598;28;20231;-83
2023/03/15 00:12:21;;;;;;;177.40;133.03;;;;;;;5.23;100.00;95795.97;5087853;28;20458;-84
2023/03/15 00:14:50;;;;;;;;;;;;;;;5.28;100.00;95815.72;5087761;28;20447;-84
2023/03/15 00:17:16;;;;;;;;;;;;;;;5.25;100.00;95821.50;5086113;28;19928;-84
2023/03/15 00:19:43;;;;;;;;;;;;;;;5.16;100.00;95824.63;5091066;28;19954;-84
2023/03/15 00:22:11;;;;;;;;;;;;;;;5.08;100.00;95835.53;5087944;28;19929;-84
2023/03/15 00:24:37;;;;;;;;;;;;;;;5.04;100.00;95842.31;5088123;28;20003;-84
2023/03/15 00:27:05;;;;;;;;;;;;;;;5.01;100.00;95854.28;5093615;28;19920;-84
2023/03/15 00:29:32;;;;;;;;;;;;;;;4.97;100.00;95845.03;5110875;27;19924;-84
2023/03/15 00:32:00;;;;;;;;;;;;;;;4.80;100.00;95843.78;5091433;28;19924;-84
2023/03/15 00:34:27;;;;;;;;;;;;;;;4.69;100.00;95831.03;5089599;28;19963;-84
2023/03/15 00:36:53;;;;;;;;;;;;;;;4.61;100.00;95832.06;5093572;28;19948;-84
2023/03/15 00:39:20;;;;;;;;;;;;;;;4.47;100.00;95841.13;5086987;28;19920;-84
2023/03/15 00:41:47;;;;;;;;;;;;;;;4.35;100.00;95853.44;5081943;28;20011;-84
2023/03/15 00:44:14;;;;;;;;;;;;;;;4.28;100.00;95858.78;5086113;28;19948;-84
2023/03/15 00:46:41;;;;;;;;;;;;;;;4.15;100.00;95866.78;5091556;28;19972;-84
2023/03/15 00:49:09;;;;;;;;;;;;;;;4.04;100.00;95867.34;5084373;28;19935;-84
2023/03/15 00:51:36;;;;;;;;;;;;;;;3.97;100.00;95887.88;5092473;28;19920;-84
2023/03/15 00:54:03;;;;;;;;;;;;;;;3.97;100.00;95888.72;5091054;28;19966;-84
2023/03/15 00:56:29;;;;;;;;;;;;;;;4.04;100.00;95900.25;5105246;27;19959;-84
2023/03/15 00:58:58;;;;;;;;;;;;;;;3.99;100.00;95908.03;5083592;28;19970;-84
2023/03/15 01:01:26;;;;;;;;;;;;;;;3.90;100.00;95916.44;5095727;28;19920;-84
2023/03/15 01:03:53;;;;;;;;;;;;;;;3.77;100.00;95926.00;5090545;28;19920;-84
2023/03/15 01:06:22;;;;;;;;;;;;;;;3.62;100.00;95925.31;5087387;28;19927;-84
2023/03/15 01:08:50;;;;;;;;;;;;;;;3.54;100.00;95933.50;5088021;28;20144;-84
2023/03/15 01:11:18;;;;;;;;;;;;;;;3.48;100.00;95933.47;5087816;28;19920;-84
2023/03/15 01:13:45;;;;;;;;;;;;;;;3.46;100.00;95940.84;5089530;28;19920;-84
2023/03/15 01:16:13;;;;;;;;;;;;;;;3.47;100.00;95954.00;5091256;28;19920;-84
2023/03/15 01:18:40;;;;;;;;;;;;;;;3.52;100.00;95966.75;5089719;28;19930;-84
2023/03/15 01:21:07;;;;;;;;;;;;;;;3.54;100.00;95970.88;5089417;28;19924;-83
2023/03/15 01:23:35;;;;;;;;;;;;;;;3.48;100.00;95960.97;5089060;28;19920;-84
2023/03/15 01:26:02;;;;;;;;;;;;;;;3.36;100.00;95994.56;5087183;28;19920;-83
2023/03/15 01:28:29;;;;;;;;;;;;;;;3.05;100.00;95994.94;5091620;28;19927;-84
2023/03/15 01:30:57;;;;;;;;;;;;;;;2.86;100.00;95999.06;5092036;28;20015;-84
2023/03/15 01:33:24;;;;;;;;;;;;;;;2.77;100.00;95981.53;5086955;28;19924;-84
2023/03/15 01:35:58;;;;;;;;;;;;;;;2.84;100.00;95990.41;5082739;28;19920;-84
2023/03/15 01:38:24;;;;;;;;;;;;;;;2.92;100.00;95979.63;5087555;28;19923;-83
2023/03/15 01:40:53;;;;;;;;;;;;;;;2.93;100.00;95989.28;5090898;28;19956;-84
2023/03/15 01:43:20;;;;;;;;;;;;;;;3.09;100.00;95977.50;5078209;28;19920;-84
2023/03/15 01:46:08;;;;;;;;;;;;;;;3.27;100.00;95974.38;5092840;28;19924;-83
2023/03/15 01:48:43;;;;;;;;;;;;;;;3.36;100.00;95994.56;5090410;28;19973;-84
2023/03/15 01:51:14;;;;;;;;;;;;;;;3.41;100.00;95994.78;5087832;28;19971;-83
2023/03/15 01:53:42;;;;;;;;;;;;;;;3.42;100.00;95993.78;5089494;28;19948;-84
2023/03/15 01:56:11;;;;;;;;;;;;;;;3.42;100.00;96004.44;5083720;28;19947;-83
2023/03/15 01:58:38;;;;;;;;;;;;;;;3.41;100.00;96018.81;5091712;28;19955;-83
2023/03/15 02:01:06;;;;;;;;;;;;;;;3.34;100.00;96020.59;5091256;28;19926;-84
2023/03/15 02:03:45;;;;;;;;;;;;;;;3.28;100.00;96021.38;5084577;28;19927;-83
2023/03/15 02:06:16;;;;;;;;;;;;;;;3.25;100.00;96041.25;5080066;28;19928;-83
2023/03/15 02:08:50;;;;;;;;;;;;;;;3.20;100.00;96033.00;5078958;28;19928;-83
2023/03/15 02:11:20;;;;;;;;;;;;;;;3.18;100.00;96040.38;5083003;28;19921;-83
2023/03/15 02:13:48;;;;;;;;;;;;;;;3.18;100.00;96031.56;5089626;28;19920;-84
2023/03/15 02:16:15;;;;;;;;;;;;;;;3.20;100.00;96040.19;5088811;28;19927;-83
2023/03/15 02:18:48;;;;;;;;;;;;;;;3.19;100.00;96025.19;5088608;28;19920;-84
2023/03/15 02:21:21;;;;;;;;;;;;;;;3.19;100.00;96022.53;5087167;28;19923;-83
2023/03/15 02:23:52;;;;;;;;;;;;;;;3.20;100.00;96026.84;5088636;28;19920;-83
2023/03/15 02:26:22;;;;;;;;;;;;;;;3.21;100.00;96023.19;5097958;27;19920;-83
2023/03/15 02:28:52;;;;;;;;;;;;;;;3.29;100.00;96021.19;5081168;28;19920;-84
2023/03/15 02:31:20;;;;;;;;;;;;;;;3.27;100.00;96009.06;5073580;28;19920;-84
2023/03/15 02:33:50;;;;;;;;;;;;;;;3.34;100.00;96024.09;5088401;28;20016;-84
2023/03/15 02:36:18;;;;;;;;;;;;;;;3.49;100.00;96026.66;5086982;28;19925;-83
2023/03/15 02:38:45;;;;;;;;;;;;;;;3.47;100.00;96018.06;5077818;28;19926;-83
2023/03/15 02:41:13;;;;;;;;;;;;;;;3.32;100.00;96033.31;5079864;28;19920;-84
2023/03/15 02:43:40;;;;;;;;;;;;;;;3.18;100.00;96037.72;5084020;28;19927;-84
2023/03/15 02:46:10;;;;;;;;;;;;;;;3.11;100.00;96038.66;5081584;28;19924;-83
2023/03/15 02:48:37;;;;;;;;;;;;;;;3.02;100.00;96044.13;5088914;28;19926;-83
2023/03/15 02:51:04;;;;;;;;;;;;;;;3.08;100.00;96028.38;5078401;28;19928;-83
2023/03/15 02:53:31;;;;;;;;;;;;;;;3.31;100.00;96039.69;5087896;28;19931;-83
2023/03/15 02:55:58;;;;;;;;;;;;;;;3.60;100.00;96007.44;5088994;28;20007;-83
2023/03/15 02:58:25;;;;;;;;;;;;;;;3.83;100.00;96011.72;5087835;28;19974;-83
2023/03/15 03:00:52;;;;;;;;;;;;;;;4.02;100.00;96010.97;5091262;28;19920;-83
2023/03/15 03:03:20;;;;;;;;;;;;;;;4.16;100.00;96018.06;5086853;28;19962;-83
2023/03/15 03:05:48;;;;;;;;;;;;;;;4.17;100.00;96017.00;5084097;28;20019;-84
2023/03/15 03:08:15;;;;;;;;;;;;;;;4.24;100.00;96025.09;5087133;28;19924;-83
2023/03/15 03:10:42;;;;;;;;;;;;;;;4.20;100.00;96027.31;5084462;28;19984;-83
2023/03/15 03:13:09;;;;;;;;;;;;;;;4.24;100.00;96022.41;5090395;28;19924;-83
2023/03/15 03:15:38;;;;;;;;;;;;;;;4.36;100.00;96035.00;5085146;28;19924;-83
2023/03/15 03:18:05;;;;;;;;;;;;;;;4.41;100.00;96037.91;5087654;28;19931;-85
2023/03/15 03:20:33;;;;;;;;;;;;;;;4.43;100.00;96041.19;5086716;28;19920;-85
2023/03/15 03:23:05;;;;;;;;;;;;;;;4.44;100.00;96025.97;5086418;28;19934;-83
2023/03/15 03:25:32;;;;;;;;;;;;;;;4.41;100.00;96037.91;5086916;28;19927;-83
2023/03/15 03:28:03;;;;;;;;;;;;;;;4.39;100.00;96039.13;5085084;28;19930;-84
2023/03/15 03:30:31;;;;;;;;;;;;;;;4.36;99.34;96029.66;5086771;28;19924;-83
2023/03/15 03:32:57;;;;;;;;;;;;;;;4.43;100.00;96045.69;5085004;28;19920;-83
2023/03/15 03:35:24;;;;;;;;;;;;;;;4.41;100.00;96043.25;5084528;28;19964;-83
2023/03/15 03:37:53;;;;;;;;;;;;;;;4.39;100.00;96056.00;5072072;28;20051;-83
2023/03/15 03:40:24;;;;;;;;;;;;;;;4.41;99.73;96069.16;5089307;28;19995;-83
2023/03/15 03:42:51;;;;;;;;;;;;;;;4.40;100.00;96063.00;5086437;28;19995;-83
2023/03/15 03:45:19;;;;;;;;;;;;;;;4.36;100.00;96077.75;5081491;28;19920;-83
2023/03/15 03:47:50;;;;;;;;;;;;;;;4.39;100.00;96076.53;5083911;28;19980;-83
2023/03/15 03:50:17;;;;;;;;;;;;;;;4.24;100.00;96078.53;5085539;28;19951;-83
2023/03/15 03:52:44;;;;;;;;;;;;;;;4.09;100.00;96090.16;5088251;28;20078;-83
2023/03/15 03:55:23;;;;;;;;;;;;;;;3.91;100.00;96094.34;5088858;28;20018;-84
2023/03/15 03:57:51;;;;;;;;;;;;;;;3.83;100.00;96091.84;5082349;28;19919;-83
2023/03/15 04:00:34;;;;;;;;;;;;;;;3.75;100.00;96093.59;5086363;28;20005;-83
2023/03/15 04:03:26;;;;;;;;;;;;;;;3.76;100.00;96108.63;5103765;27;19969;-84
2023/03/15 04:05:55;;;;;;;;;;;;;;;3.74;100.00;96104.50;5114646;27;19928;-84
2023/03/15 04:08:24;;;;;;;;;;;;;;;3.76;100.00;96111.28;5097370;27;19924;-84
2023/03/15 04:10:52;;;;;;;;;;;;;;;3.86;100.00;96102.94;5099271;28;19931;-83
2023/03/15 04:13:20;;;;;;;;;;;;;;;3.94;100.00;96110.81;5103098;28;19924;-84
2023/03/15 04:15:47;;;;;;;;;;;;;;;3.95;100.00;96117.81;5100857;27;19930;-84
2023/03/15 04:18:14;;;;;;;;;;;;;;;3.91;100.00;96118.41;5099177;27;19932;-84
2023/03/15 04:20:47;;;;;;;;;;;;;;;3.86;100.00;96126.16;5096141;28;19938;-84
2023/03/15 04:23:17;;;;;;;;;;;;;;;3.74;100.00;96126.66;5092943;28;19924;-84
2023/03/15 04:26:07;;;;;;;;;;;;;;;3.57;100.00;96133.34;5081501;28;19924;-84
2023/03/15 04:29:04;;;;;;;;;;;;;;;3.53;100.00;96149.91;5101382;28;19970;-84
2023/03/15 04:31:36;;;;;;;;;;;;;;;3.57;100.00;96141.34;5091352;28;19928;-84
2023/03/15 04:34:16;;;;;;;;;;;;;;;3.45;100.00;96153.53;5098375;28;19967;-84
2023/03/15 04:37:10;;;;;;;;;;;;;;;3.43;100.00;96147.56;5093176;28;19936;-84
2023/03/15 04:39:58;;;;;;;;;;;;;;;3.45;100.00;96153.53;5099329;28;20030;-84
2023/03/15 04:42:31;;;;;;;;;;;;;;;3.45;100.00;96147.38;5095055;28;20062;-84
2023/03/15 04:45:09;;;;;;;;;;;;;;;3.43;100.00;96160.91;5089368;28;19939;-84
2023/03/15 04:47:36;;;;;;;;;;;;;;;3.41;100.00;96152.25;5089475;28;19970;-84
2023/03/15 04:50:23;;;;;;;;;;;;;;;3.37;100.00;96162.50;5094193;28;19924;-84
2023/03/15 04:52:58;;;;;;;;;;;;;;;3.32;100.00;96164.06;5097674;28;19924;-84
2023/03/15 04:55:46;;;;;;;;;;;;;;;3.17;100.00;96168.63;5088762;28;19924;-84
2023/03/15 04:58:40;;;;;;;;;;;;;;;3.08;100.00;96175.91;5093282;27;19924;-84
2023/03/15 05:01:29;;;;;;;;;;;;;;;3.02;100.00;96182.00;5100725;28;20214;-84
2023/03/15 05:04:35;;;;;;;;;;;;;;;2.96;100.00;96194.25;5109136;28;19968;-84
2023/03/15 05:07:19;;;;;;;;;;;;;;;2.89;100.00;96201.31;5123610;28;19935;-84
2023/03/15 05:09:47;;;;;;;;;;;;;;;2.85;100.00;96199.22;5111272;28;19928;-84
2023/03/15 05:12:33;;;;;;;;;;;;;;;2.77;100.00;96208.16;5120772;28;19935;-84
2023/03/15 05:15:16;;;;;;;;;;;;;;;2.64;100.00;96218.63;5100034;28;20021;-84
2023/03/15 05:18:02;;;;;;;;;;;;;;;2.64;100.00;96226.63;5101784;28;19950;-84
2023/03/15 05:20:47;;;;;;;;;;;;;;;2.63;100.00;96225.00;5102431;28;19931;-84
2023/03/15 05:23:37;;;;;;;;;;;;;;;2.61;100.00;96237.69;5096132;28;19931;-84
2023/03/15 05:26:25;;;;;;;;;;;;;;;2.58;100.00;96251.38;5097836;28;19932;-84
2023/03/15 05:29:12;;;;;;;;;;;;;;;2.51;100.00;96255.78;5093210;28;19932;-84
2023/03/15 05:31:57;;;;;;;;;;;;;;;2.54;100.00;96266.09;5108441;28;19931;-84
2023/03/15 05:34:33;;;;;;;;;;;;;;;2.58;100.00;96254.03;5111416;28;19948;-84
2023/03/15 05:37:11;;;;;;;;;;;;;;;2.64;100.00;96270.09;5107705;28;19930;-84
2023/03/15 05:39:41;;;;;;;;;;;;;;;2.78;100.00;96267.66;5094027;28;20439;-84
2023/03/15 05:42:25;;;;;;;;;;;;;;;2.81;100.00;96278.75;5102335;28;19928;-84
2023/03/15 05:45:08;;;;;;;;;;;;;;;2.89;100.00;96286.66;5100365;28;19964;-84
2023/03/15 05:48:07;;;;;;;;;;;;;;;2.85;100.00;96280.06;5081059;28;19935;-84
2023/03/15 05:50:52;;;;;;;;;;;;;;;2.81;100.00;96286.75;5101477;28;19923;-84
2023/03/15 05:53:32;;;;;;;;;;;;;;;2.76;100.00;96289.16;5106421;28;19975;-84
2023/03/15 05:56:11;;;;;;;;;;;;;;;2.73;100.00;96297.50;5096842;28;19931;-84
2023/03/15 05:58:52;;;;;;;;;;;;;;;2.72;100.00;96300.38;5102654;28;19928;-84
2023/03/15 06:01:44;;;;;;;;;;;;;;;2.58;100.00;96302.00;5096545;27;19924;-84
2023/03/15 06:04:18;;;;;;;;;;;;;;;2.54;100.00;96304.22;5100843;28;19924;-84
2023/03/15 06:06:46;;;;;;;;;;;;;;;2.57;100.00;96308.34;5108469;28;19928;-84
2023/03/15 06:09:12;;;;;;;;;;;;;;;2.52;100.00;96311.56;5103044;28;19931;-84
2023/03/15 06:11:39;;;;;;;;;;;;;;;2.46;100.00;96308.81;5103851;28;19928;-85
2023/03/15 06:14:10;;;;;;;;;;;;;;;2.44;100.00;96308.97;5097814;28;19931;-84
2023/03/15 06:16:45;;;;;;;;;;;;;;;2.41;100.00;96324.50;5097599;28;19924;-84
2023/03/15 06:19:12;;;;;;;;;;;;;;;2.40;100.00;96322.81;5094255;28;20022;-84
2023/03/15 06:21:38;;;;;;;;;;;;;;;2.41;100.00;96325.31;5095194;28;19924;-84
2023/03/15 06:24:11;;;;;;;;;;;;;;;2.46;100.00;96322.13;5101125;28;19931;-84
2023/03/15 06:26:38;;;;;;;;;;;;;;;2.50;100.00;96324.25;5103991;28;19931;-84
2023/03/15 06:29:06;;;;;;;;;;;;;;;2.56;100.00;96323.50;5103079;28;19981;-84
2023/03/15 06:31:34;;;;;;;;;;;;;;;2.62;100.00;96328.13;5104476;28;19935;-84
2023/03/15 06:34:05;;;;;;;;;;;;;;;2.68;100.00;96326.56;5094911;28;19935;-84
2023/03/15 06:36:33;;;;;;;;;;;;;;;2.71;100.00;96334.22;5100228;28;20030;-84
2023/03/15 06:39:01;;;;;;;;;;;;;;;2.71;100.00;96328.88;5105686;28;19967;-84
2023/03/15 06:41:28;;;;;;;;;;;;;;;2.78;100.00;96331.66;5106628;28;19928;-84
2023/03/15 06:44:03;;;;;;;;;;;;;;;2.83;100.00;96345.25;5096472;28;19955;-84
2023/03/15 06:46:30;;;;;;;;;;;;;;;2.74;100.00;96344.50;5106846;28;19928;-84
2023/03/15 06:48:58;;;;;;;;;;;;;;;2.68;100.00;96347.91;5100978;28;19923;-83
2023/03/15 06:51:26;;;;;;;;;;;;;;;2.69;100.00;96340.72;5098671;28;19954;-83
2023/03/15 06:53:52;;;;;;;;;;;;;;;2.75;100.00;96348.00;5092026;28;19924;-83
2023/03/15 06:56:20;;;;;;;;;;;;;;;2.79;100.00;96354.63;5094646;28;19924;-83
2023/03/15 06:58:47;;;;;;;;;;;;;;;2.88;100.00;96364.22;5096116;28;19934;-83
2023/03/15 07:01:14;;;;;;;;;;;;;;;2.86;100.00;96361.72;5103892;28;19985;-84
2023/03/15 07:03:40;;;;;;;;;;;;;;;2.92;100.00;96365.50;5096136;28;19998;-83
2023/03/15 07:06:09;;;;;;;;;;;;;;;2.98;100.00;96368.25;5093353;28;19928;-83
2023/03/15 07:08:35;;;;;;;;;;;;;;;3.01;100.00;96369.72;5093075;28;20021;-86
2023/03/15 07:11:03;;;;;;;;;;;;;;;3.08;100.00;96369.81;5098661;28;19924;-85
2023/03/15 07:13:30;;;;;;;;;;;;;;;3.11;100.00;96372.13;5108368;28;20019;-83
2023/03/15 07:15:57;;;;;;;;;;;;;;;3.03;100.00;96376.53;5098135;28;19968;-83
2023/03/15 07:18:24;;;;;;;;;;;;;;;3.15;100.00;96381.44;5100149;28;19924;-86
2023/03/15 07:20:55;;;;;;;;;;;;;;;3.16;100.00;96385.75;5097194;28;19928;-85
2023/03/15 07:23:23;;;;;;;;;;;;;;;3.10;100.00;96391.81;5102761;28;19993;-86
2023/03/15 07:25:50;;;;;;;;;;;;;;;3.12;100.00;96392.47;5098858;28;19938;-85
2023/03/15 07:28:17;;;;;;;;;;;;;;;3.01;100.00;96391.91;5101913;28;19959;-86
2023/03/15 07:30:51;;;;;;;;;;;;;;;2.99;100.00;96393.91;5101479;28;19950;-85
2023/03/15 07:33:21;;;;;;;;;;;;;;;3.04;100.00;96398.72;5106367;27;19932;-85
2023/03/15 07:35:47;;;;;;;;;;;;;;;3.13;100.00;96410.97;5098736;28;19928;-85
2023/03/15 07:38:14;;;;;;;;;;;;;;;3.15;100.00;96416.13;5088239;28;19939;-86
2023/03/15 07:40:42;;;;;;;;;;;;;;;3.19;100.00;96414.72;5102220;28;19938;-85
2023/03/15 07:43:09;;;;;;;;;;;;;;;3.19;100.00;96415.56;5101659;28;19930;-85
2023/03/15 07:45:36;;;;;;;;;;;;;;;3.23;100.00;96416.84;5101801;28;19939;-85
2023/03/15 07:48:03;;;;;;;;;;;;;;;3.21;100.00;96418.88;5105100;28;19949;-85
2023/03/15 07:50:29;;;;;;;;;;;;;;;3.22;100.00;96417.06;5092964;28;20010;-85
2023/03/15 07:52:56;;;;;;;;;;;;;;;3.25;100.00;96417.50;5107611;28;19923;-85
2023/03/15 07:55:24;;;;;;;;;;;;;;;3.25;100.00;96414.00;5091693;28;19935;-85
2023/03/15 07:57:52;;;;;;;;;;;;;;;3.20;100.00;96411.88;5097795;28;20014;-83
2023/03/15 08:00:19;;;;;;;;;;;;;;;2.97;100.00;96414.63;5105187;28;19924;-85
2023/03/15 08:02:46;;;;;;;;;;;;;;;2.92;100.00;96416.16;5106312;28;19927;-85
2023/03/15 08:05:12;;;;;;;;;;;;;;;2.92;100.00;96409.00;5095605;28;19931;-85
2023/03/15 08:07:39;;;;;;;;;;;;;;;2.99;100.00;96409.91;5094972;28;19935;-85
2023/03/15 08:10:07;;;;;;;;;;;;;;;2.89;100.00;96420.00;5096011;28;19924;-85
2023/03/15 08:12:34;;;;;;;;;;;;;;;2.88;100.00;96417.56;5109562;28;19978;-85
2023/03/15 08:15:02;;;;;;;;;;;;;;;2.94;100.00;96414.97;5090672;28;19985;-85
2023/03/15 08:17:29;;;;;;;;;;;;;;;3.00;100.00;96416.09;5092625;28;19924;-85
2023/03/15 08:19:56;;;;;;;;;;;;;;;2.94;100.00;96422.97;5105271;28;19928;-86
2023/03/15 08:22:23;;;;;;;;;;;;;;;3.00;100.00;96416.09;5098091;28;20471;-85
2023/03/15 08:24:52;;;;;;;;;;;;;;;2.92;100.00;96421.50;5100304;28;19963;-85
2023/03/15 08:27:18;;;;;;;;;;;;;;;2.90;100.00;96421.66;5089929;28;19924;-85
2023/03/15 08:29:45;;;;;;;;;;;;;;;2.93;100.00;96415.16;5093338;28;19923;-84
2023/03/15 08:32:13;;;;;;;;;;;;;;;3.00;100.00;96421.41;5091085;28;19932;-83
2023/03/15 08:34:41;;;;;;;;;;;;;;;3.14;100.00;96412.63;5107820;28;19924;-84
2023/03/15 08:37:10;;;;;;;;;;;;;;;3.27;100.00;96404.81;5099267;28;19928;-84
2023/03/15 08:39:37;;;;;;;;;;;;;;;3.45;100.00;96406.28;5091752;28;19981;-84
2023/03/15 08:42:04;;;;;;;;;;;;;;;3.56;100.00;96408.50;5094986;28;19969;-84
2023/03/15 08:44:30;;;;;;;;;;;;;;;3.72;100.00;96398.44;5098632;28;19932;-84
2023/03/15 08:46:57;;;;;;;;;;;;;;;3.97;100.00;96406.97;5111695;28;19927;-84
2023/03/15 08:49:25;;;;;;;;;;;;;;;4.21;100.00;96400.44;5096101;28;19924;-84
2023/03/15 08:51:52;;;;;;;;;;;;;;;4.25;100.00;96395.56;5107012;28;19931;-84
2023/03/15 08:54:20;;;;;;;;;;;;;;;4.30;100.00;96388.59;5108441;28;20015;-84
2023/03/15 08:56:47;;;;;;;;;;;;;;;4.51;100.00;96395.78;5097878;28;19924;-84
2023/03/15 08:59:14;;;;;;;;;;;;;;;4.61;100.00;96393.63;5104607;28;19924;-84
2023/03/15 09:01:41;;;;;;;;;;;;;;;4.64;100.00;96397.78;5107063;28;20027;-84
2023/03/15 09:04:07;;;;;;;;;;;;;;;4.78;100.00;96397.69;5111401;28;19924;-84
2023/03/15 09:06:36;;;;;;;;;;;;;;;4.82;100.00;96398.13;5112208;28;19981;-84
2023/03/15 09:09:02;;;;;;;;;;;;;;;4.88;100.00;96397.34;5109598;28;19954;-84
2023/03/15 09:11:29;;;;;;;;;;;;;;;5.13;100.00;96390.56;5112555;28;19923;-84
2023/03/15 09:13:56;;;;;;;;;;;;;;;5.34;100.00;96400.38;5105047;28;19924;-84
2023/03/15 09:16:23;;;;;;;;;;;;;;;5.47;97.83;96383.56;5103268;28;19931;-84
2023/03/15 09:18:50;;;;;;;;;;;;;;;5.71;100.00;96388.41;5100556;28;19992;-84
2023/03/15 09:21:18;;;;;;;;;;;;;;;5.89;95.88;96388.75;5113249;27;19963;-84
2023/03/15 09:23:46;;;;;;;;;;;;;;;5.98;86.39;96387.53;5100994;28;19930;-84
2023/03/15 09:26:13;;;;;;;;;;;;;;;6.15;85.56;96395.22;5095592;28;19908;-83
2023/03/15 09:28:39;;;;;;;;;;;;;;;6.32;82.12;96385.78;5096082;28;19931;-84
2023/03/15 09:31:07;;;;;;;;;;;;;;;6.50;80.66;96382.53;5102901;28;19946;-84
2023/03/15 09:33:33;;;;;;;;;;;;;;;6.66;79.87;96382.13;5107650;28;19931;-84
2023/03/15 09:36:00;;;;;;;;;;;;;;;6.65;76.91;96386.66;5100192;28;19924;-84
2023/03/15 09:38:27;;;;;;;;;;;;;;;6.81;78.22;96391.63;5096725;28;19924;-84
2023/03/15 09:40:58;;;;;;;;;;;;;;;6.90;76.24;96394.13;5107352;28;19930;-84
2023/03/15 09:43:37;;;;;;;;;;;;;;;7.07;77.20;96392.66;5099073;28;20022;-84
2023/03/15 09:46:10;;;;;;;;;;;;;;;7.15;74.56;96381.72;5099472;28;19950;-84
2023/03/15 09:48:40;;;;;;;;;;;;;;;7.29;76.21;96380.69;5099021;28;19924;-84
2023/03/15 09:51:12;;;;;;;;;;;;;;;7.51;77.47;96392.00;5101043;28;20035;-84
2023/03/15 09:53:41;;;;;;;;;;;;;;;7.72;76.32;96393.63;5108165;28;19944;-84
2023/03/15 09:56:14;;;;;;;;;;;;;;;7.89;75.93;96389.44;5097168;28;19931;-84
2023/03/15 09:58:43;;;;;;;;;;;;;;;7.94;75.47;96403.88;5098158;28;19928;-84
2023/03/15 10:01:13;;;;;;;;;;;;;;;7.92;72.43;96402.44;5099048;28;19924;-84
2023/03/15 10:03:44;;;;;;;;;;;;;;;7.97;73.12;96390.03;5100781;28;19982;-84
2023/03/15 10:06:13;;;;;;;;;;;;;;;8.09;73.77;96395.53;5096255;28;19927;-84
2023/03/15 10:08:40;;;;;;;;;;;;;;;8.11;74.03;96393.47;5093910;28;19932;-84
2023/03/15 10:11:11;;;;;;;;;;;;;;;8.24;77.12;96393.41;5105537;28;19930;-84
2023/03/15 10:13:46;;;;;;;;;;;;;;;8.26;71.13;96394.00;5107645;27;19924;-84
2023/03/15 10:16:24;;;;;;;;;;;;;;;8.21;73.22;96390.31;5107916;27;19935;-84
2023/03/15 10:19:01;;;;;;;;;;;;;;;8.32;67.24;96398.59;5090582;28;19932;-84
2023/03/15 10:21:33;;;;;;;;;;;;;;;8.39;66.74;96405.78;5091360;28;19932;-84
2023/03/15 10:24:02;;;;;;;;;;;;;;;8.48;66.48;96412.56;5096835;28;19963;-84
2023/03/15 10:26:32;;;;;;;;;;;;;;;8.53;66.79;96418.13;5101137;28;19931;-84
2023/03/15 10:29:02;;;;;;;;;;;;;;;8.55;66.73;96416.03;5097970;28;19924;-84
2023/03/15 10:31:31;;;;;;;;;;;;;;;8.61;65.76;96405.22;5097253;28;19930;-84
2023/03/15 10:33:58;;;;;;;;;;;;;;;8.83;64.66;96402.22;5097568;28;19974;-84
2023/03/15 10:36:25;;;;;;;;;;;;;;;9.00;63.69;96400.63;5099684;28;19924;-84
2023/03/15 10:38:52;;;;;;;;;;;;;;;9.13;65.59;96405.91;5097746;28;19924;-83
2023/03/15 10:41:29;;;;;;;;;;;;;;;9.34;65.81;96394.75;5094930;28;19932;-84
2023/03/15 10:43:58;;;;;;;;;;;;;;;9.47;62.56;96389.22;5095184;28;19932;-83
2023/03/15 10:46:26;;;;;;;;;;;;;;;9.45;61.12;96393.19;5099394;28;19928;-83
2023/03/15 10:48:53;;;;;;;;;;;;;;;9.60;63.68;96399.06;5092682;28;19962;-83
2023/03/15 10:51:21;;;;;;;;;;;;;;;9.59;57.67;96388.50;5099564;28;19924;-84
2023/03/15 10:53:52;;;;;;;;;;;;;;;9.77;58.22;96393.91;5104137;28;19932;-84
2023/03/15 10:56:24;;;;;;;;;;;;;;;9.93;56.88;96387.09;5093319;28;19956;-84
2023/03/15 10:58:52;;;;;;;;;;;;;;;9.64;53.98;96378.69;5099246;28;20027;-84
2023/03/15 11:01:23;;;;;;;;;;;;;;;9.84;56.42;96376.59;5100943;28;19932;-83
2023/03/15 11:04:01;;;;;;;;;;;;;;;9.83;53.82;96380.34;5096095;28;19931;-84
2023/03/15 11:06:29;;;;;;;;;;;;;;;10.00;54.82;96387.84;5092376;28;19932;-83
2023/03/15 11:09:08;;;;;;;;;;;;;;;9.85;51.71;96380.94;5099689;28;19931;-84
2023/03/15 11:11:48;;;;;;;;;;;;;;;9.91;52.37;96373.00;5104923;28;19923;-84
2023/03/15 11:14:15;;;;;;;;;;;;;;;10.10;50.33;96378.16;5104609;28;19923;-84
2023/03/15 11:16:41;;;;;;;;;;;;;;;10.04;51.61;96378.22;5100826;28;19931;-84
2023/03/15 11:19:15;;;;;;;;;;;;;;;10.09;52.71;96375.69;5107538;28;19927;-84
2023/03/15 11:21:42;;;;;;;;;;;;;;;10.31;50.20;96371.47;5102309;28;19931;-84
2023/03/15 11:24:16;;;;;;;;;;;;;;;10.43;47.42;96366.97;5091583;28;19927;-84
2023/03/15 11:26:50;;;;;;;;;;;;;;;10.48;47.24;96372.50;5090901;28;19924;-84
2023/03/15 11:29:21;;;;;;;;;;;;;;;10.36;48.39;96366.25;5098343;28;19931;-84
2023/03/15 11:31:48;;;;;;;;;;;;;;;10.73;48.36;96369.63;5094882;28;19931;-84
2023/03/15 11:34:22;;;;;;;;;;;;;;;10.76;48.54;96371.88;5106600;28;19958;-84
2023/03/15 11:36:52;;;;;;;;;;;;;;;10.77;47.81;96357.34;5101919;28;19932;-84
2023/03/15 11:39:24;;;;;;;;;;;;;;;10.70;47.04;96351.22;5096643;28;20013;-84
2023/03/15 11:41:54;;;;;;;;;;;;;;;10.91;46.27;96349.84;5101716;28;19944;-84
2023/03/15 11:44:25;;;;;;;;;;;;;;;11.05;44.75;96354.00;5103833;28;19964;-84
2023/03/15 11:46:56;;;;;;;;;;;;;;;10.98;41.66;96343.28;5095570;28;19932;-83
2023/03/15 11:49:29;;;;;;;;;;;;;;;11.11;43.83;96339.53;5099964;28;19946;-84
2023/03/15 11:51:56;;;;;;;;;;;;;;;11.05;44.40;96335.06;5097381;28;19961;-84
2023/03/15 11:54:25;;;;;;;;;;;;;;;10.95;44.30;96334.81;5096284;28;19950;-84
2023/03/15 11:56:53;;;;;;;;;;;;;;;10.81;41.90;96326.09;5092991;28;19957;-83
2023/03/15 11:59:24;;;;;;;;;;;;;;;10.88;42.38;96337.63;5096791;28;19947;-83
2023/03/15 12:01:52;;;;;;;;;;;;;;;10.83;42.17;96328.56;5098336;28;19965;-83
2023/03/15 12:04:41;;;;;;;;;;;;;;;10.98;41.45;96328.94;5096399;28;19962;-83
2023/03/15 12:07:24;;;;;;;;;;;;;;;11.28;42.74;96331.56;5093219;28;19935;-84
2023/03/15 12:09:51;;;;;;;;;;;;;;;11.72;40.64;96327.41;5092473;28;19995;-84
2023/03/15 12:12:44;;;;;;;;;;;;;;;11.57;38.06;96317.06;5092534;28;19963;-84
2023/03/15 12:15:30;;;;;;;;;;;;;;;11.30;39.54;96308.66;5093644;28;19924;-84
2023/03/15 12:18:05;;;;;;;;;;;;;;;11.50;37.81;96304.72;5095660;28;19925;-84
2023/03/15 12:20:36;;;;;;;;;;;;;;;11.70;39.93;96300.59;5102451;28;19924;-84
2023/03/15 12:23:17;;;;;;;;;;;;;;;12.09;38.88;96295.44;5098648;28;19931;-85
2023/03/15 12:25:46;;;;;;;;;;;;;;;12.21;36.70;96287.28;5109658;27;19930;-84
2023/03/15 12:28:20;;;;;;;;;;;;;;;12.09;35.39;96280.03;5099020;28;19924;-83
2023/03/15 12:30:53;;;;;;;;;;;;;;;12.08;34.41;96282.97;5105288;28;19935;-83
2023/03/15 12:33:21;;;;;;;;;;;;;;;12.12;36.57;96279.56;5105378;28;19938;-83
2023/03/15 12:35:49;;;;;;;;;;;;;;;12.13;34.75;96281.22;5095072;28;19928;-83
2023/03/15 12:38:18;;;;;;;;;;;;;;;12.09;34.80;96274.63;5106180;27;20006;-83
2023/03/15 12:40:51;;;;;;;;;;;;;;;12.17;35.47;96280.72;5099719;28;19981;-85
2023/03/15 12:43:33;;;;;;;;;;;;;;;12.12;36.18;96278.75;5103317;28;19928;-84
2023/03/15 12:46:00;;;;;;;;;;;;;;;12.05;35.66;96283.47;5093869;28;19936;-84
2023/03/15 12:48:27;;;;;;;;;;;;;;;11.95;35.05;96275.97;5097195;28;19924;-84
2023/03/15 12:50:57;;;;;;;;;;;;;;;12.15;36.60;96275.56;5096629;28;19927;-84
2023/03/15 12:53:28;;;;;;;;;;;;;;;12.34;35.69;96271.56;5098257;28;19996;-84
2023/03/15 12:55:55;;;;;;;;;;;;;;;12.28;37.26;96282.56;5096520;28;19942;-84
2023/03/15 12:58:26;;;;;;;;;;;;;;;12.33;35.48;96286.19;5106567;28;19924;-85
2023/03/15 13:00:53;;;;;;;;;;;;;;;12.04;34.90;96279.94;5111997;28;20008;-84
2023/03/15 13:03:21;;;;;;;;;;;;;;;11.92;34.66;96281.84;5106828;28;19935;-84